Fulton, IN (46931)

5:53 AM EDT on July 31, 2016 (GMT -0400)
Country side | | Change Station
Active Advisory: Special Statement

Elev 850 ft 40.93 °N, 86.16 °W | Updated 17 seconds ago

Fog
Fog
65.3 °F
Feels Like 65.3 °F
N
0.0
Wind Variable Wind from South

Today
High -- | Low -- °F
--% Chance of Precip.
Yesterday
High -- | Low -- °F
Precip. -- in
Pressure 29.99 in
Visibility 0.2 miles
Clouds Overcast 100 ft
Dew Point 64 °F
Humidity 96%
Rainfall 0.00 in
Snow Depth Not available.
6:40 AM 9:01 PM
Waning Crescent, 7% visible
METAR KRCR 310935Z AUTO 00000KT 1/4SM FG OVC001 20/20 A2999 RMK AO2
Pressure 29.99 in
Visibility 0.2 miles
Clouds Overcast 100 ft
Dew Point 64 °F
Humidity 96%
Rainfall 0.00 in
Snow Depth Not available.
6:40 AM 9:01 PM
Waning Crescent, 7% visible
METAR KRCR 310935Z AUTO 00000KT 1/4SM FG OVC001 20/20 A2999 RMK AO2

10-Day Weather Forecast

Almanac

Astronomy

Jul. 31, 2016 Rise Set
Actual Time
Civil Twilight
Nautical Twilight
Astronomical Twilight
Moon
Length of Visible Light
Length of Day
Tomorrow will be .
, % of the Moon is Illuminated

Today's Extremes

State Highs State Lows

Community

WunderPhotos

Upload Photos

1,928,776 photos uploaded!

WunderBlog® & News

Nearby

Air Quality

  Air Quality AQ Index Pollutant
Not available.

Snow Depth

Station Depth Elevation

Earthquake Activity

City Distance Mag. Time & Date
Minimum magnitude displayed is 2.5.

Coastal Water Temperatures

Place Temperature

Stations

Nearby Weather Stations

Station Location Temp. Windchill Dew Point Humidity Wind Precip. Elev Updated Type
                   

Watches & Warnings

Special Statement
Issued: 4:22 AM CDT Jul. 31, 2016 – National Weather Service

... Areas of fog early this morning...

Fog has developed early this morning across portions of northern
Indiana. Visibility in a few locations may be reduced to a
quarter mile or less. Motorists should use extra caution and be
prepared to slow down if fog banks are encountered. The fog will
likely dissipate by 900 am EDT.




522 am EDT sun Jul 31 2016 /422 am CDT sun Jul 31 2016/

... Areas of fog early this morning...

Fog has developed early this morning across portions of northern
Indiana. Visibility in a few locations may be reduced to a
quarter mile or less. Motorists should use extra caution and be
prepared to slow down if fog banks are encountered. The fog will
likely dissipate by 900 am EDT.